In Rescue
 
Open Full Screen Window  High Contrast Mode
July 25, 2021 1:11 PM GMT
Weather Information
Wind Direction
  ---
Wind Speed
  00 kt (0 mph)
Wind Gust
  00 kt (0 mph)
Altimeter
29.94 in
Visibility
10 SM
Temperature
23° C
73° F
Dewpoint
19° C
66° F
Humidity
78%
Sky Condition
Overcast @ 2,000 ft
MVFR

METAR K22N 251311Z AUTO 00000KT 10SM OVC020 23/19 A2994 RMK AO2

FAA Disclaimer: The data displayed is for advisory purposes only and is not to be used for flight planning or operations.